Terminal Aerodrome Forecast
Issued by NWS Twin Cities, MN

Home | Current Version | Previous Version | Graphics & Text | Print | Product List | Glossary On
Versions: 1 2 3 4 5 6 7 8 9 10 11 12 13 14 15 16 17 18 19 20 21
000
FTUS43 KMPX 090235 AAB
TAFSTC
TAF AMD
KSTC 090235Z 0903/0924 32019G27KT P6SM OVC035
     FM090900 34013G21KT P6SM BKN035 OVC050
     FM091700 32010KT P6SM BKN070
     FM092000 30009KT P6SM SCT110
     FM092300 26006KT P6SM BKN120=

USA.gov is the U.S. government's official web portal to all federal, state and local government web resources and services.